createdAt,value
2022-12-25T00:00:32.231Z,99887.17
2022-12-25T00:05:59.680Z,99896.41
2022-12-25T00:11:08.162Z,99894.61
2022-12-25T00:16:21.052Z,99907.85
2022-12-25T00:21:25.459Z,99917.06
2022-12-25T00:26:29.968Z,99923.77
2022-12-25T00:31:35.141Z,99933.98
2022-12-25T00:36:41.849Z,99941.55
2022-12-25T00:42:05.706Z,99947.60
2022-12-25T00:47:09.695Z,99949.43
2022-12-25T00:52:13.603Z,99956.15
2022-12-25T00:57:17.829Z,99961.07
2022-12-25T01:02:24.859Z,99973.48
2022-12-25T01:07:31.087Z,99969.02
2022-12-25T01:12:38.243Z,99966.39
2022-12-25T01:17:45.299Z,99959.67
2022-12-25T01:22:51.273Z,99969.63
2022-12-25T01:27:56.514Z,99970.80
2022-12-25T01:33:01.373Z,99970.98
2022-12-25T01:38:07.229Z,99975.04
2022-12-25T01:43:25.163Z,99980.48
2022-12-25T01:48:37.835Z,99984.81
2022-12-25T01:53:44.887Z,99986.45
2022-12-25T01:58:50.925Z,99985.08
2022-12-25T02:04:01.910Z,99981.30
2022-12-25T02:09:08.482Z,99985.95
2022-12-25T02:14:14.471Z,99986.20
2022-12-25T02:20:03.545Z,99994.96
2022-12-25T02:25:09.725Z,100006.83
2022-12-25T02:30:15.138Z,100007.60
2022-12-25T02:35:29.885Z,100003.98
2022-12-25T02:40:50.044Z,100015.51
2022-12-25T02:46:19.117Z,100007.01
2022-12-25T02:51:46.798Z,100006.04
2022-12-25T02:57:11.893Z,100013.09
2022-12-25T03:02:36.116Z,100015.09
2022-12-25T03:07:43.675Z,100018.16
2022-12-25T03:12:59.614Z,100027.77
2022-12-25T03:18:07.358Z,100035.91
2022-12-25T03:23:34.117Z,100038.89
2022-12-25T03:28:39.081Z,100043.27
2022-12-25T03:34:09.935Z,100045.41
2022-12-25T03:39:50.734Z,100039.90
2022-12-25T03:45:29.564Z,100044.86
2022-12-25T03:51:11.141Z,100053.23
2022-12-25T03:56:38.011Z,100060.85
2022-12-25T04:02:02.391Z,100070.55
2022-12-25T04:07:25.020Z,100083.77
2022-12-25T04:12:48.860Z,100091.34
2022-12-25T04:18:13.050Z,100090.39
2022-12-25T04:23:37.084Z,100092.68
2022-12-25T04:29:00.759Z,100104.70
2022-12-25T04:34:23.957Z,100104.90
2022-12-25T04:39:28.331Z,100100.66
2022-12-25T04:44:33.379Z,100104.59
2022-12-25T04:49:37.880Z,100105.46
2022-12-25T04:54:42.697Z,100112.95
2022-12-25T04:59:48.065Z,100109.60
2022-12-25T05:04:53.903Z,100106.77
2022-12-25T05:09:59.015Z,100108.66
2022-12-25T05:15:03.621Z,100115.35
2022-12-25T05:20:09.018Z,100121.56
2022-12-25T05:25:14.648Z,100125.55
2022-12-25T05:30:19.208Z,100125.60
2022-12-25T05:35:24.268Z,100130.27
2022-12-25T05:40:29.691Z,100132.73
2022-12-25T05:45:34.911Z,100138.70
2022-12-25T05:50:40.283Z,100143.89
2022-12-25T05:55:44.303Z,100146.73
2022-12-25T06:00:49.514Z,100151.10
2022-12-25T06:05:54.469Z,100150.38
2022-12-25T06:11:00.448Z,100151.52
2022-12-25T06:16:07.971Z,100153.52
2022-12-25T06:21:14.630Z,100159.37
2022-12-25T06:26:20.551Z,100170.25
2022-12-25T06:31:25.133Z,100178.71
2022-12-25T06:36:30.656Z,100186.75
2022-12-25T06:41:34.728Z,100202.80
2022-12-25T06:46:39.849Z,100212.10
2022-12-25T06:51:44.645Z,100217.76
2022-12-25T06:56:49.600Z,100235.98
2022-12-25T07:01:58.438Z,100252.36
2022-12-25T07:07:08.766Z,100259.81
2022-12-25T07:12:23.966Z,100271.98
2022-12-25T07:17:28.377Z,100272.05
2022-12-25T07:22:32.087Z,100279.81
2022-12-25T07:27:36.503Z,100278.30
2022-12-25T07:32:45.530Z,100279.08
2022-12-25T07:37:54.627Z,100288.88
2022-12-25T07:43:01.215Z,100288.24
2022-12-25T07:48:11.893Z,100287.56
2022-12-25T07:53:20.713Z,100283.35
2022-12-25T07:58:25.709Z,100289.13
2022-12-25T08:03:30.905Z,100291.61
2022-12-25T08:08:38.665Z,100294.28
2022-12-25T08:13:46.265Z,100295.23
2022-12-25T08:18:51.088Z,100304.81
2022-12-25T08:23:56.785Z,100316.82
2022-12-25T08:29:02.356Z,100321.65
2022-12-25T08:34:08.374Z,100310.05
2022-12-25T08:39:13.691Z,100311.23
2022-12-25T08:44:17.499Z,100321.75
2022-12-25T08:49:21.438Z,100326.89
2022-12-25T08:54:25.647Z,100333.02
2022-12-25T08:59:30.222Z,100345.98
2022-12-25T09:04:35.312Z,100348.10
2022-12-25T09:09:39.319Z,100354.38
2022-12-25T09:14:44.221Z,100343.63
2022-12-25T09:19:49.748Z,100345.42
2022-12-25T09:24:53.911Z,100348.52
2022-12-25T09:29:58.240Z,100355.31
2022-12-25T09:35:03.172Z,100360.50
2022-12-25T09:40:09.479Z,100355.30
2022-12-25T09:45:26.994Z,100358.86
2022-12-25T09:50:32.416Z,100355.46
2022-12-25T09:55:45.075Z,100354.49
2022-12-25T10:01:00.685Z,100357.36
2022-12-25T10:06:24.387Z,100355.63
2022-12-25T10:11:42.265Z,100358.08
2022-12-25T10:16:46.882Z,100349.48
2022-12-25T10:21:56.663Z,100351.54
2022-12-25T10:27:05.305Z,100356.80
2022-12-25T10:32:11.144Z,100359.15
2022-12-25T10:37:18.120Z,100356.77
2022-12-25T10:42:36.926Z,100350.54
2022-12-25T10:47:45.380Z,100342.08
2022-12-25T10:53:09.829Z,100347.84
2022-12-25T10:58:21.292Z,100358.02
2022-12-25T11:03:31.467Z,100357.51
2022-12-25T11:08:35.628Z,100341.55
2022-12-25T11:13:51.686Z,100337.73
2022-12-25T11:18:59.443Z,100344.73
2022-12-25T11:24:06.671Z,100336.52
2022-12-25T11:29:39.869Z,100328.89
2022-12-25T11:34:48.314Z,100326.34
2022-12-25T11:39:53.226Z,100325.48
2022-12-25T11:45:12.995Z,100319.66
2022-12-25T11:50:37.489Z,100313.38
2022-12-25T11:55:46.812Z,100309.33
2022-12-25T12:00:54.858Z,100320.49
2022-12-25T12:06:05.419Z,100325.75
2022-12-25T12:11:22.390Z,100335.91
2022-12-25T12:16:27.483Z,100340.58
2022-12-25T12:21:33.100Z,100345.17
2022-12-25T12:26:42.229Z,100341.39
2022-12-25T12:31:50.602Z,100338.98
2022-12-25T12:37:05.600Z,100331.05
2022-12-25T12:42:20.738Z,100323.79
2022-12-25T12:47:50.099Z,100321.23
2022-12-25T12:52:57.124Z,100324.70
2022-12-25T12:58:07.041Z,100327.75
2022-12-25T13:03:49.190Z,100337.42
2022-12-25T13:09:26.868Z,100336.33
2022-12-25T13:14:31.545Z,100334.04
2022-12-25T13:19:37.824Z,100332.73
2022-12-25T13:24:43.207Z,100328.67
2022-12-25T13:29:49.019Z,100319.69
2022-12-25T13:34:54.957Z,100332.21
2022-12-25T13:40:02.071Z,100340.42
2022-12-25T13:45:19.814Z,100338.63
2022-12-25T13:50:34.937Z,100343.23
2022-12-25T13:55:40.947Z,100337.91
2022-12-25T14:00:51.688Z,100330.41
2022-12-25T14:06:01.333Z,100324.11
2022-12-25T14:11:08.230Z,100314.56
2022-12-25T14:16:17.597Z,100312.25
2022-12-25T14:21:53.070Z,100317.84
2022-12-25T14:27:09.703Z,100327.68
2022-12-25T14:32:34.995Z,100340.05
2022-12-25T14:37:55.284Z,100348.27
2022-12-25T14:43:24.825Z,100348.48
2022-12-25T14:48:38.492Z,100343.98
2022-12-25T14:53:56.371Z,100339.71
2022-12-25T14:59:06.036Z,100323.45
2022-12-25T15:04:22.769Z,100317.46
2022-12-25T15:09:31.703Z,100336.18
2022-12-25T15:14:39.212Z,100345.47
2022-12-25T15:19:50.689Z,100354.88
2022-12-25T15:25:12.507Z,100360.91
2022-12-25T15:30:30.140Z,100364.85
2022-12-25T15:41:09.522Z,100367.76
2022-12-25T15:46:28.630Z,100361.53
2022-12-25T15:51:48.430Z,100349.50
2022-12-25T15:57:12.428Z,100347.27
2022-12-25T16:02:26.143Z,100348.00
2022-12-25T16:07:39.961Z,100351.83
2022-12-25T16:13:00.298Z,100347.71
2022-12-25T16:18:25.215Z,100330.14
2022-12-25T16:23:37.246Z,100315.04
2022-12-25T16:28:55.029Z,100303.92
2022-12-25T16:34:09.304Z,100295.81
2022-12-25T16:39:29.048Z,100303.34
2022-12-25T16:44:40.654Z,100297.66
2022-12-25T16:50:05.318Z,100286.98
2022-12-25T16:55:18.977Z,100274.64
2022-12-25T17:00:29.473Z,100296.98
2022-12-25T17:05:42.721Z,100305.58
2022-12-25T17:10:57.549Z,100307.38
2022-12-25T17:16:27.551Z,100316.54
2022-12-25T17:21:47.984Z,100297.02
2022-12-25T17:27:15.763Z,100298.39
2022-12-25T17:32:37.532Z,100285.76
2022-12-25T17:38:01.309Z,100305.07
2022-12-25T17:43:19.013Z,100301.46
2022-12-25T17:48:30.062Z,100291.70
2022-12-25T17:53:43.172Z,100280.94
2022-12-25T17:58:58.414Z,100276.90
2022-12-25T18:04:07.842Z,100283.94
2022-12-25T18:09:13.703Z,100276.85
2022-12-25T18:14:18.404Z,100270.74
2022-12-25T18:19:24.141Z,100257.14
2022-12-25T18:24:29.168Z,100259.79
2022-12-25T18:29:33.831Z,100242.80
2022-12-25T18:34:38.812Z,100237.87
2022-12-25T18:39:43.209Z,100237.80
2022-12-25T18:44:51.643Z,100227.59
2022-12-25T18:49:56.290Z,100249.63
2022-12-25T18:55:00.853Z,100220.58
2022-12-25T19:00:11.785Z,100215.70
2022-12-25T19:05:20.804Z,100208.83
2022-12-25T19:10:33.200Z,100203.13
2022-12-25T19:15:43.557Z,100187.36
2022-12-25T19:20:54.529Z,100193.62
2022-12-25T19:26:00.864Z,100187.85
2022-12-25T19:31:07.948Z,100160.50
2022-12-25T19:36:17.039Z,100164.17
2022-12-25T19:41:24.652Z,100162.12
2022-12-25T19:46:39.170Z,100160.66
2022-12-25T19:51:46.604Z,100163.38
2022-12-25T19:56:50.877Z,100148.89
2022-12-25T20:01:56.308Z,100133.08
2022-12-25T20:07:03.993Z,100138.41
2022-12-25T20:12:11.326Z,100148.52
2022-12-25T20:17:16.112Z,100151.86
2022-12-25T20:26:42.871Z,100133.77
2022-12-25T20:31:47.997Z,100140.02
2022-12-25T20:36:52.135Z,100123.67
2022-12-25T20:41:56.352Z,100105.53
2022-12-25T20:47:01.362Z,100095.55
2022-12-25T20:52:06.517Z,100092.38
2022-12-25T20:57:10.939Z,100093.73
2022-12-25T21:02:35.845Z,100089.17
2022-12-25T21:07:40.940Z,100078.80
2022-12-25T21:12:46.196Z,100062.83
2022-12-25T21:17:50.273Z,100053.92
2022-12-25T21:22:54.268Z,100047.42
2022-12-25T21:27:57.889Z,100047.70
2022-12-25T21:33:21.488Z,100043.30
2022-12-25T21:38:26.916Z,100028.33
2022-12-25T21:43:31.644Z,100019.36
2022-12-25T21:48:38.258Z,100003.69
2022-12-25T21:53:42.304Z,99995.64
2022-12-25T21:58:48.073Z,99984.73
2022-12-25T22:03:53.009Z,99982.30
2022-12-25T22:08:57.512Z,99970.85
2022-12-25T22:14:20.794Z,99960.23
2022-12-25T22:19:45.994Z,99950.02
2022-12-25T22:24:52.304Z,99937.63
2022-12-25T22:29:56.693Z,99930.71
2022-12-25T22:35:00.890Z,99927.07
2022-12-25T22:40:06.403Z,99923.33
2022-12-25T22:45:13.716Z,99923.24
2022-12-25T22:50:21.310Z,99928.08
2022-12-25T22:55:26.864Z,99938.88
2022-12-25T23:00:31.892Z,99929.84
2022-12-25T23:05:37.240Z,99926.46
2022-12-25T23:10:41.671Z,99915.61
2022-12-25T23:15:49.075Z,99900.98
2022-12-25T23:21:14.448Z,99899.60
2022-12-25T23:26:21.796Z,99886.00
2022-12-25T23:31:35.364Z,99888.88
2022-12-25T23:36:41.970Z,99894.05
2022-12-25T23:41:46.388Z,99905.07
2022-12-25T23:46:52.578Z,99902.16
2022-12-25T23:51:59.221Z,99899.71
2022-12-25T23:57:04.074Z,99897.42
